sensor_id;sensor_type;location;lat;lon;timestamp;temperature;humidity
24326;DHT22;12448;45.532;5.290;2023-05-10T00:02:07;14.30;96.90
24326;DHT22;12448;45.532;5.290;2023-05-10T00:04:33;14.10;96.90
24326;DHT22;12448;45.532;5.290;2023-05-10T00:06:59;14.30;97.10
24326;DHT22;12448;45.532;5.290;2023-05-10T00:09:38;14.30;97.00
24326;DHT22;12448;45.532;5.290;2023-05-10T00:12:04;14.30;96.90
24326;DHT22;12448;45.532;5.290;2023-05-10T00:14:29;14.30;96.90
24326;DHT22;12448;45.532;5.290;2023-05-10T00:17:05;14.30;96.80
24326;DHT22;12448;45.532;5.290;2023-05-10T00:19:38;14.30;96.80
24326;DHT22;12448;45.532;5.290;2023-05-10T00:22:03;14.30;96.80
24326;DHT22;12448;45.532;5.290;2023-05-10T00:24:29;14.30;97.00
24326;DHT22;12448;45.532;5.290;2023-05-10T00:26:55;14.30;96.90
24326;DHT22;12448;45.532;5.290;2023-05-10T00:29:26;14.30;96.90
24326;DHT22;12448;45.532;5.290;2023-05-10T00:31:53;14.30;96.90
24326;DHT22;12448;45.532;5.290;2023-05-10T00:34:19;14.20;96.30
24326;DHT22;12448;45.532;5.290;2023-05-10T00:36:44;14.10;96.50
24326;DHT22;12448;45.532;5.290;2023-05-10T00:39:11;14.10;96.80
24326;DHT22;12448;45.532;5.290;2023-05-10T00:41:37;14.20;96.90
24326;DHT22;12448;45.532;5.290;2023-05-10T00:44:03;14.20;97.00
24326;DHT22;12448;45.532;5.290;2023-05-10T00:46:29;14.20;96.90
24326;DHT22;12448;45.532;5.290;2023-05-10T00:48:55;14.20;96.90
24326;DHT22;12448;45.532;5.290;2023-05-10T00:51:24;14.20;96.90
24326;DHT22;12448;45.532;5.290;2023-05-10T00:53:51;14.20;96.80
24326;DHT22;12448;45.532;5.290;2023-05-10T00:56:17;14.20;97.00
24326;DHT22;12448;45.532;5.290;2023-05-10T00:58:43;14.20;96.60
24326;DHT22;12448;45.532;5.290;2023-05-10T01:01:09;14.20;96.50
24326;DHT22;12448;45.532;5.290;2023-05-10T01:03:36;14.30;96.50
24326;DHT22;12448;45.532;5.290;2023-05-10T01:06:02;14.10;96.10
24326;DHT22;12448;45.532;5.290;2023-05-10T01:08:28;14.00;95.90
24326;DHT22;12448;45.532;5.290;2023-05-10T01:10:57;13.80;96.00
24326;DHT22;12448;45.532;5.290;2023-05-10T01:13:33;13.60;96.20
24326;DHT22;12448;45.532;5.290;2023-05-10T01:16:06;13.60;96.60
24326;DHT22;12448;45.532;5.290;2023-05-10T01:18:40;13.60;96.90
24326;DHT22;12448;45.532;5.290;2023-05-10T01:27:25;13.80;96.80
24326;DHT22;12448;45.532;5.290;2023-05-10T01:37:52;14.00;95.90
24326;DHT22;12448;45.532;5.290;2023-05-10T01:43:01;13.90;95.70
24326;DHT22;12448;45.532;5.290;2023-05-10T01:45:36;13.90;95.80
24326;DHT22;12448;45.532;5.290;2023-05-10T01:48:11;13.90;95.80
24326;DHT22;12448;45.532;5.290;2023-05-10T01:50:43;14.10;95.50
24326;DHT22;12448;45.532;5.290;2023-05-10T01:53:18;13.90;95.50
24326;DHT22;12448;45.532;5.290;2023-05-10T01:55:51;13.90;95.30
24326;DHT22;12448;45.532;5.290;2023-05-10T01:58:24;13.90;95.20
24326;DHT22;12448;45.532;5.290;2023-05-10T02:00:52;13.90;95.30
24326;DHT22;12448;45.532;5.290;2023-05-10T02:03:22;13.90;95.20
24326;DHT22;12448;45.532;5.290;2023-05-10T02:05:49;13.90;95.10
24326;DHT22;12448;45.532;5.290;2023-05-10T02:08:17;13.90;95.40
24326;DHT22;12448;45.532;5.290;2023-05-10T02:10:45;13.90;95.60
24326;DHT22;12448;45.532;5.290;2023-05-10T02:13:11;13.90;95.20
24326;DHT22;12448;45.532;5.290;2023-05-10T02:15:40;13.80;95.20
24326;DHT22;12448;45.532;5.290;2023-05-10T02:18:07;13.80;95.40
24326;DHT22;12448;45.532;5.290;2023-05-10T02:20:35;13.80;95.40
24326;DHT22;12448;45.532;5.290;2023-05-10T02:23:02;13.80;95.40
24326;DHT22;12448;45.532;5.290;2023-05-10T02:25:28;13.70;95.20
24326;DHT22;12448;45.532;5.290;2023-05-10T02:27:56;13.60;95.80
24326;DHT22;12448;45.532;5.290;2023-05-10T02:30:23;13.50;95.70
24326;DHT22;12448;45.532;5.290;2023-05-10T02:32:55;13.40;96.10
24326;DHT22;12448;45.532;5.290;2023-05-10T02:35:22;13.30;96.40
24326;DHT22;12448;45.532;5.290;2023-05-10T02:37:51;13.20;96.50
24326;DHT22;12448;45.532;5.290;2023-05-10T02:40:18;13.10;96.70
24326;DHT22;12448;45.532;5.290;2023-05-10T02:42:45;13.20;96.80
24326;DHT22;12448;45.532;5.290;2023-05-10T02:45:15;13.20;96.80
24326;DHT22;12448;45.532;5.290;2023-05-10T02:47:42;13.30;96.90
24326;DHT22;12448;45.532;5.290;2023-05-10T02:50:09;13.30;96.70
24326;DHT22;12448;45.532;5.290;2023-05-10T02:52:50;13.30;96.70
24326;DHT22;12448;45.532;5.290;2023-05-10T02:55:21;13.40;96.70
24326;DHT22;12448;45.532;5.290;2023-05-10T02:57:58;13.40;96.60
24326;DHT22;12448;45.532;5.290;2023-05-10T03:00:25;13.40;96.70
24326;DHT22;12448;45.532;5.290;2023-05-10T03:02:50;13.30;96.70
24326;DHT22;12448;45.532;5.290;2023-05-10T03:05:16;13.40;96.80
24326;DHT22;12448;45.532;5.290;2023-05-10T03:07:42;13.40;96.90
24326;DHT22;12448;45.532;5.290;2023-05-10T03:10:08;13.40;97.00
24326;DHT22;12448;45.532;5.290;2023-05-10T03:20:36;13.20;97.60
24326;DHT22;12448;45.532;5.290;2023-05-10T03:23:11;13.20;97.80
24326;DHT22;12448;45.532;5.290;2023-05-10T03:25:37;13.20;97.90
24326;DHT22;12448;45.532;5.290;2023-05-10T03:28:04;13.20;97.90
24326;DHT22;12448;45.532;5.290;2023-05-10T03:30:30;13.20;97.80
24326;DHT22;12448;45.532;5.290;2023-05-10T03:32:57;13.40;97.90
24326;DHT22;12448;45.532;5.290;2023-05-10T03:35:23;13.60;98.00
24326;DHT22;12448;45.532;5.290;2023-05-10T03:37:49;13.20;97.90
24326;DHT22;12448;45.532;5.290;2023-05-10T03:40:15;13.30;98.00
24326;DHT22;12448;45.532;5.290;2023-05-10T03:42:41;13.40;98.00
24326;DHT22;12448;45.532;5.290;2023-05-10T03:45:09;13.40;98.00
24326;DHT22;12448;45.532;5.290;2023-05-10T03:47:35;13.40;97.90
24326;DHT22;12448;45.532;5.290;2023-05-10T03:50:01;13.40;97.90
24326;DHT22;12448;45.532;5.290;2023-05-10T03:52:27;13.30;97.90
24326;DHT22;12448;45.532;5.290;2023-05-10T03:54:55;13.40;97.90
24326;DHT22;12448;45.532;5.290;2023-05-10T03:57:21;13.30;97.90
24326;DHT22;12448;45.532;5.290;2023-05-10T03:59:47;13.30;98.00
24326;DHT22;12448;45.532;5.290;2023-05-10T04:02:12;13.30;98.20
24326;DHT22;12448;45.532;5.290;2023-05-10T04:04:38;13.30;98.20
24326;DHT22;12448;45.532;5.290;2023-05-10T04:07:03;13.30;98.20
24326;DHT22;12448;45.532;5.290;2023-05-10T04:09:32;13.40;98.30
24326;DHT22;12448;45.532;5.290;2023-05-10T04:11:59;13.20;98.30
24326;DHT22;12448;45.532;5.290;2023-05-10T04:14:25;13.20;98.30
24326;DHT22;12448;45.532;5.290;2023-05-10T04:16:51;13.20;98.30
24326;DHT22;12448;45.532;5.290;2023-05-10T04:19:17;13.10;98.30
24326;DHT22;12448;45.532;5.290;2023-05-10T04:21:42;13.10;98.30
24326;DHT22;12448;45.532;5.290;2023-05-10T04:24:08;13.10;98.40
24326;DHT22;12448;45.532;5.290;2023-05-10T04:26:33;13.10;98.30
24326;DHT22;12448;45.532;5.290;2023-05-10T04:28:59;13.00;98.20
24326;DHT22;12448;45.532;5.290;2023-05-10T04:31:47;13.30;98.40
24326;DHT22;12448;45.532;5.290;2023-05-10T04:34:14;12.90;98.10
24326;DHT22;12448;45.532;5.290;2023-05-10T04:36:40;12.60;97.70
24326;DHT22;12448;45.532;5.290;2023-05-10T04:39:05;12.80;97.30
24326;DHT22;12448;45.532;5.290;2023-05-10T04:41:31;12.70;97.60
24326;DHT22;12448;45.532;5.290;2023-05-10T04:44:11;12.50;97.00
24326;DHT22;12448;45.532;5.290;2023-05-10T04:46:37;12.50;96.40
24326;DHT22;12448;45.532;5.290;2023-05-10T04:49:03;12.40;96.30
24326;DHT22;12448;45.532;5.290;2023-05-10T04:51:28;12.30;95.70
24326;DHT22;12448;45.532;5.290;2023-05-10T04:53:54;12.20;95.80
24326;DHT22;12448;45.532;5.290;2023-05-10T04:56:20;12.10;96.30
24326;DHT22;12448;45.532;5.290;2023-05-10T04:58:47;12.10;96.00
24326;DHT22;12448;45.532;5.290;2023-05-10T05:01:13;12.10;96.00
24326;DHT22;12448;45.532;5.290;2023-05-10T05:03:39;12.10;96.00
24326;DHT22;12448;45.532;5.290;2023-05-10T05:06:04;12.10;95.70
24326;DHT22;12448;45.532;5.290;2023-05-10T05:08:30;12.00;95.70
24326;DHT22;12448;45.532;5.290;2023-05-10T05:10:56;11.90;95.50
24326;DHT22;12448;45.532;5.290;2023-05-10T05:13:22;11.90;95.70
24326;DHT22;12448;45.532;5.290;2023-05-10T05:15:56;11.80;95.70
24326;DHT22;12448;45.532;5.290;2023-05-10T05:18:22;11.90;95.80
24326;DHT22;12448;45.532;5.290;2023-05-10T05:20:47;11.80;95.80
24326;DHT22;12448;45.532;5.290;2023-05-10T05:23:13;11.70;95.90
24326;DHT22;12448;45.532;5.290;2023-05-10T05:25:39;12.00;96.00
24326;DHT22;12448;45.532;5.290;2023-05-10T05:28:16;11.90;95.80
24326;DHT22;12448;45.532;5.290;2023-05-10T05:30:42;11.80;95.40
24326;DHT22;12448;45.532;5.290;2023-05-10T05:33:08;11.90;95.60
24326;DHT22;12448;45.532;5.290;2023-05-10T05:35:33;11.90;95.40
24326;DHT22;12448;45.532;5.290;2023-05-10T05:37:59;12.10;95.40
24326;DHT22;12448;45.532;5.290;2023-05-10T05:40:25;11.90;95.50
24326;DHT22;12448;45.532;5.290;2023-05-10T05:42:50;12.00;95.30
24326;DHT22;12448;45.532;5.290;2023-05-10T05:45:16;12.00;95.10
24326;DHT22;12448;45.532;5.290;2023-05-10T05:47:42;12.20;95.30
24326;DHT22;12448;45.532;5.290;2023-05-10T05:50:08;12.10;95.40
24326;DHT22;12448;45.532;5.290;2023-05-10T05:52:33;12.10;95.20
24326;DHT22;12448;45.532;5.290;2023-05-10T05:54:59;12.10;94.90
24326;DHT22;12448;45.532;5.290;2023-05-10T05:57:25;12.10;94.90
24326;DHT22;12448;45.532;5.290;2023-05-10T05:59:52;12.20;94.70
24326;DHT22;12448;45.532;5.290;2023-05-10T06:02:17;12.30;94.90
24326;DHT22;12448;45.532;5.290;2023-05-10T06:04:43;12.20;94.70
24326;DHT22;12448;45.532;5.290;2023-05-10T06:07:09;12.30;94.80
24326;DHT22;12448;45.532;5.290;2023-05-10T06:09:35;12.50;94.60
24326;DHT22;12448;45.532;5.290;2023-05-10T06:12:00;12.30;94.30
24326;DHT22;12448;45.532;5.290;2023-05-10T06:14:26;12.30;94.70
24326;DHT22;12448;45.532;5.290;2023-05-10T06:16:52;12.30;94.80
24326;DHT22;12448;45.532;5.290;2023-05-10T06:19:18;12.30;94.90
24326;DHT22;12448;45.532;5.290;2023-05-10T06:21:44;12.30;95.00
24326;DHT22;12448;45.532;5.290;2023-05-10T06:24:10;12.30;94.60
24326;DHT22;12448;45.532;5.290;2023-05-10T06:26:35;12.30;94.70
24326;DHT22;12448;45.532;5.290;2023-05-10T06:29:01;12.30;94.60
24326;DHT22;12448;45.532;5.290;2023-05-10T06:31:26;12.70;95.00
24326;DHT22;12448;45.532;5.290;2023-05-10T06:33:52;12.40;94.70
24326;DHT22;12448;45.532;5.290;2023-05-10T06:36:18;12.40;94.70
24326;DHT22;12448;45.532;5.290;2023-05-10T06:38:44;12.40;94.20
24326;DHT22;12448;45.532;5.290;2023-05-10T06:41:10;12.30;94.60
24326;DHT22;12448;45.532;5.290;2023-05-10T06:43:36;12.40;94.50
24326;DHT22;12448;45.532;5.290;2023-05-10T06:46:05;12.40;94.40
24326;DHT22;12448;45.532;5.290;2023-05-10T06:48:30;12.40;94.20
24326;DHT22;12448;45.532;5.290;2023-05-10T06:50:56;12.30;94.70
24326;DHT22;12448;45.532;5.290;2023-05-10T06:53:22;12.40;95.20
24326;DHT22;12448;45.532;5.290;2023-05-10T06:55:49;12.40;94.00
24326;DHT22;12448;45.532;5.290;2023-05-10T06:58:14;12.50;94.00
24326;DHT22;12448;45.532;5.290;2023-05-10T07:00:40;12.50;93.80
24326;DHT22;12448;45.532;5.290;2023-05-10T07:03:08;12.40;93.60
24326;DHT22;12448;45.532;5.290;2023-05-10T07:05:33;12.30;93.80
24326;DHT22;12448;45.532;5.290;2023-05-10T07:07:59;12.30;93.80
24326;DHT22;12448;45.532;5.290;2023-05-10T07:10:25;12.20;93.40
24326;DHT22;12448;45.532;5.290;2023-05-10T07:12:51;12.20;93.40
24326;DHT22;12448;45.532;5.290;2023-05-10T07:15:16;12.30;93.00
24326;DHT22;12448;45.532;5.290;2023-05-10T07:17:42;12.40;93.40
24326;DHT22;12448;45.532;5.290;2023-05-10T07:20:08;12.30;93.40
24326;DHT22;12448;45.532;5.290;2023-05-10T07:22:34;12.20;92.70
24326;DHT22;12448;45.532;5.290;2023-05-10T07:25:00;12.10;94.00
24326;DHT22;12448;45.532;5.290;2023-05-10T07:27:25;12.10;93.80
24326;DHT22;12448;45.532;5.290;2023-05-10T07:29:51;12.20;94.20
24326;DHT22;12448;45.532;5.290;2023-05-10T07:32:17;12.10;93.70
24326;DHT22;12448;45.532;5.290;2023-05-10T07:34:43;12.00;94.00
24326;DHT22;12448;45.532;5.290;2023-05-10T07:37:08;12.20;94.40
24326;DHT22;12448;45.532;5.290;2023-05-10T07:39:34;12.30;94.30
24326;DHT22;12448;45.532;5.290;2023-05-10T07:42:00;12.50;94.30
24326;DHT22;12448;45.532;5.290;2023-05-10T07:44:25;12.70;94.00
24326;DHT22;12448;45.532;5.290;2023-05-10T07:46:51;12.80;93.20
24326;DHT22;12448;45.532;5.290;2023-05-10T07:49:20;12.90;93.70
24326;DHT22;12448;45.532;5.290;2023-05-10T07:51:46;13.00;93.10
24326;DHT22;12448;45.532;5.290;2023-05-10T07:54:11;13.10;92.80
24326;DHT22;12448;45.532;5.290;2023-05-10T07:56:39;13.10;93.10
24326;DHT22;12448;45.532;5.290;2023-05-10T07:59:06;13.30;92.90
24326;DHT22;12448;45.532;5.290;2023-05-10T08:01:33;13.30;93.00
24326;DHT22;12448;45.532;5.290;2023-05-10T08:03:59;13.40;92.60
24326;DHT22;12448;45.532;5.290;2023-05-10T08:06:25;13.40;91.80
24326;DHT22;12448;45.532;5.290;2023-05-10T08:08:52;13.50;91.70
24326;DHT22;12448;45.532;5.290;2023-05-10T08:11:20;13.40;91.30
24326;DHT22;12448;45.532;5.290;2023-05-10T08:13:46;13.40;91.10
24326;DHT22;12448;45.532;5.290;2023-05-10T08:16:12;13.60;91.50
24326;DHT22;12448;45.532;5.290;2023-05-10T08:18:38;13.60;91.90
24326;DHT22;12448;45.532;5.290;2023-05-10T08:21:05;13.70;90.80
24326;DHT22;12448;45.532;5.290;2023-05-10T08:23:30;13.80;90.90
24326;DHT22;12448;45.532;5.290;2023-05-10T08:25:56;13.80;90.20
24326;DHT22;12448;45.532;5.290;2023-05-10T08:28:22;13.80;90.50
24326;DHT22;12448;45.532;5.290;2023-05-10T08:30:49;13.90;90.40
24326;DHT22;12448;45.532;5.290;2023-05-10T08:33:15;13.90;90.20
24326;DHT22;12448;45.532;5.290;2023-05-10T08:35:43;14.00;90.50
24326;DHT22;12448;45.532;5.290;2023-05-10T08:38:09;14.10;90.10
24326;DHT22;12448;45.532;5.290;2023-05-10T08:40:34;14.20;89.90
24326;DHT22;12448;45.532;5.290;2023-05-10T08:43:07;14.30;90.50
24326;DHT22;12448;45.532;5.290;2023-05-10T08:45:37;14.40;88.70
24326;DHT22;12448;45.532;5.290;2023-05-10T08:48:06;14.50;88.50
24326;DHT22;12448;45.532;5.290;2023-05-10T08:50:35;14.50;88.40
24326;DHT22;12448;45.532;5.290;2023-05-10T08:53:12;14.50;87.50
24326;DHT22;12448;45.532;5.290;2023-05-10T08:55:39;14.40;89.70
24326;DHT22;12448;45.532;5.290;2023-05-10T08:58:23;14.30;87.40
24326;DHT22;12448;45.532;5.290;2023-05-10T09:00:49;14.10;87.00
24326;DHT22;12448;45.532;5.290;2023-05-10T09:03:16;14.20;86.70
24326;DHT22;12448;45.532;5.290;2023-05-10T09:05:43;14.10;84.80
24326;DHT22;12448;45.532;5.290;2023-05-10T09:08:10;14.00;84.00
24326;DHT22;12448;45.532;5.290;2023-05-10T09:10:38;14.00;83.80
24326;DHT22;12448;45.532;5.290;2023-05-10T09:13:05;13.90;84.90
24326;DHT22;12448;45.532;5.290;2023-05-10T09:15:32;14.00;85.60
24326;DHT22;12448;45.532;5.290;2023-05-10T09:17:58;14.00;84.70
24326;DHT22;12448;45.532;5.290;2023-05-10T09:20:27;14.00;87.20
24326;DHT22;12448;45.532;5.290;2023-05-10T09:22:52;13.90;85.90
24326;DHT22;12448;45.532;5.290;2023-05-10T09:25:19;13.70;86.10
24326;DHT22;12448;45.532;5.290;2023-05-10T09:27:46;13.70;85.60
24326;DHT22;12448;45.532;5.290;2023-05-10T09:30:17;13.70;87.50
24326;DHT22;12448;45.532;5.290;2023-05-10T09:32:47;13.70;88.00
24326;DHT22;12448;45.532;5.290;2023-05-10T09:35:17;13.60;86.90
24326;DHT22;12448;45.532;5.290;2023-05-10T09:37:46;13.40;88.20
24326;DHT22;12448;45.532;5.290;2023-05-10T09:40:20;13.20;90.00
24326;DHT22;12448;45.532;5.290;2023-05-10T09:43:02;13.20;90.50
24326;DHT22;12448;45.532;5.290;2023-05-10T09:45:30;13.30;90.40
24326;DHT22;12448;45.532;5.290;2023-05-10T09:47:56;13.40;90.60
24326;DHT22;12448;45.532;5.290;2023-05-10T09:50:30;13.50;90.20
24326;DHT22;12448;45.532;5.290;2023-05-10T09:52:58;13.40;88.00
24326;DHT22;12448;45.532;5.290;2023-05-10T09:55:44;13.50;88.30
24326;DHT22;12448;45.532;5.290;2023-05-10T09:58:15;13.60;88.80
24326;DHT22;12448;45.532;5.290;2023-05-10T10:00:42;13.50;89.70
24326;DHT22;12448;45.532;5.290;2023-05-10T10:03:16;13.60;90.00
24326;DHT22;12448;45.532;5.290;2023-05-10T10:05:42;13.50;88.70
24326;DHT22;12448;45.532;5.290;2023-05-10T10:08:09;13.60;89.40
24326;DHT22;12448;45.532;5.290;2023-05-10T10:10:35;13.80;89.60
24326;DHT22;12448;45.532;5.290;2023-05-10T10:13:01;13.70;89.40
24326;DHT22;12448;45.532;5.290;2023-05-10T10:15:27;13.70;88.80
24326;DHT22;12448;45.532;5.290;2023-05-10T10:17:53;13.70;88.10
24326;DHT22;12448;45.532;5.290;2023-05-10T10:20:21;13.60;88.70
24326;DHT22;12448;45.532;5.290;2023-05-10T10:22:48;13.50;88.80
24326;DHT22;12448;45.532;5.290;2023-05-10T10:25:18;13.50;88.60
24326;DHT22;12448;45.532;5.290;2023-05-10T10:30:27;13.50;88.70
24326;DHT22;12448;45.532;5.290;2023-05-10T10:35:32;13.50;89.30
24326;DHT22;12448;45.532;5.290;2023-05-10T10:37:58;13.50;90.00
24326;DHT22;12448;45.532;5.290;2023-05-10T10:40:29;13.50;89.90
24326;DHT22;12448;45.532;5.290;2023-05-10T10:42:55;13.50;90.20
24326;DHT22;12448;45.532;5.290;2023-05-10T10:45:22;13.50;90.00
24326;DHT22;12448;45.532;5.290;2023-05-10T10:47:48;13.50;90.20
24326;DHT22;12448;45.532;5.290;2023-05-10T10:50:15;13.50;90.10
24326;DHT22;12448;45.532;5.290;2023-05-10T10:52:44;13.40;89.20
24326;DHT22;12448;45.532;5.290;2023-05-10T10:55:20;13.50;90.00
24326;DHT22;12448;45.532;5.290;2023-05-10T10:57:55;13.60;90.10
24326;DHT22;12448;45.532;5.290;2023-05-10T11:03:07;13.70;90.00
24326;DHT22;12448;45.532;5.290;2023-05-10T11:05:47;13.70;89.30
24326;DHT22;12448;45.532;5.290;2023-05-10T11:08:15;13.70;90.00
24326;DHT22;12448;45.532;5.290;2023-05-10T11:16:19;13.80;89.20
24326;DHT22;12448;45.532;5.290;2023-05-10T11:19:06;13.60;86.80
24326;DHT22;12448;45.532;5.290;2023-05-10T11:21:33;13.80;88.30
24326;DHT22;12448;45.532;5.290;2023-05-10T11:24:01;13.80;88.50
24326;DHT22;12448;45.532;5.290;2023-05-10T11:26:33;14.00;87.80
24326;DHT22;12448;45.532;5.290;2023-05-10T11:28:59;14.10;88.20
24326;DHT22;12448;45.532;5.290;2023-05-10T11:31:26;14.20;87.70
24326;DHT22;12448;45.532;5.290;2023-05-10T11:33:56;14.20;85.30
24326;DHT22;12448;45.532;5.290;2023-05-10T11:36:24;14.30;85.20
24326;DHT22;12448;45.532;5.290;2023-05-10T11:38:53;14.40;87.00
24326;DHT22;12448;45.532;5.290;2023-05-10T11:41:20;14.50;87.30
24326;DHT22;12448;45.532;5.290;2023-05-10T11:43:48;14.50;85.80
24326;DHT22;12448;45.532;5.290;2023-05-10T11:46:19;14.40;84.40
24326;DHT22;12448;45.532;5.290;2023-05-10T11:48:57;14.50;85.60
24326;DHT22;12448;45.532;5.290;2023-05-10T11:51:35;14.60;85.10
24326;DHT22;12448;45.532;5.290;2023-05-10T11:54:06;14.70;86.00
24326;DHT22;12448;45.532;5.290;2023-05-10T11:56:32;14.90;85.30
24326;DHT22;12448;45.532;5.290;2023-05-10T11:58:58;14.80;82.20
24326;DHT22;12448;45.532;5.290;2023-05-10T12:01:26;14.70;81.50
24326;DHT22;12448;45.532;5.290;2023-05-10T12:03:53;14.80;82.50
24326;DHT22;12448;45.532;5.290;2023-05-10T12:06:20;14.80;81.00
24326;DHT22;12448;45.532;5.290;2023-05-10T12:08:47;14.80;81.80
24326;DHT22;12448;45.532;5.290;2023-05-10T12:11:13;14.80;82.30
24326;DHT22;12448;45.532;5.290;2023-05-10T12:13:43;15.10;81.80
24326;DHT22;12448;45.532;5.290;2023-05-10T12:18:45;15.00;80.20
24326;DHT22;12448;45.532;5.290;2023-05-10T12:21:11;15.00;79.30
24326;DHT22;12448;45.532;5.290;2023-05-10T12:23:41;15.00;79.30
24326;DHT22;12448;45.532;5.290;2023-05-10T12:26:10;15.00;79.70
24326;DHT22;12448;45.532;5.290;2023-05-10T12:28:37;14.50;80.20
24326;DHT22;12448;45.532;5.290;2023-05-10T12:31:03;14.60;79.10
24326;DHT22;12448;45.532;5.290;2023-05-10T12:33:38;14.60;79.60
24326;DHT22;12448;45.532;5.290;2023-05-10T12:36:05;14.80;80.80
24326;DHT22;12448;45.532;5.290;2023-05-10T12:38:39;14.80;79.60
24326;DHT22;12448;45.532;5.290;2023-05-10T12:41:10;15.00;80.70
24326;DHT22;12448;45.532;5.290;2023-05-10T12:43:36;15.10;79.20
24326;DHT22;12448;45.532;5.290;2023-05-10T12:46:09;15.10;79.30
24326;DHT22;12448;45.532;5.290;2023-05-10T12:48:36;15.20;80.40
24326;DHT22;12448;45.532;5.290;2023-05-10T12:51:03;15.20;78.80
24326;DHT22;12448;45.532;5.290;2023-05-10T12:53:29;15.20;79.50
24326;DHT22;12448;45.532;5.290;2023-05-10T12:55:55;15.20;78.20
24326;DHT22;12448;45.532;5.290;2023-05-10T12:58:21;15.10;78.50
24326;DHT22;12448;45.532;5.290;2023-05-10T13:00:46;15.20;78.70
24326;DHT22;12448;45.532;5.290;2023-05-10T13:03:12;15.30;78.90
24326;DHT22;12448;45.532;5.290;2023-05-10T13:05:38;15.50;79.50
24326;DHT22;12448;45.532;5.290;2023-05-10T13:08:04;15.70;78.40
24326;DHT22;12448;45.532;5.290;2023-05-10T13:10:30;15.60;75.80
24326;DHT22;12448;45.532;5.290;2023-05-10T13:12:57;15.50;76.00
24326;DHT22;12448;45.532;5.290;2023-05-10T13:15:23;15.50;77.60
24326;DHT22;12448;45.532;5.290;2023-05-10T13:17:49;15.40;76.40
24326;DHT22;12448;45.532;5.290;2023-05-10T13:20:14;15.40;75.50
24326;DHT22;12448;45.532;5.290;2023-05-10T13:22:42;15.40;75.80
24326;DHT22;12448;45.532;5.290;2023-05-10T13:25:08;15.70;77.80
24326;DHT22;12448;45.532;5.290;2023-05-10T13:27:34;15.60;75.80
24326;DHT22;12448;45.532;5.290;2023-05-10T13:29:59;15.70;76.00
24326;DHT22;12448;45.532;5.290;2023-05-10T13:32:26;15.80;76.60
24326;DHT22;12448;45.532;5.290;2023-05-10T13:34:51;16.00;76.60
24326;DHT22;12448;45.532;5.290;2023-05-10T13:37:17;16.10;76.20
24326;DHT22;12448;45.532;5.290;2023-05-10T13:39:43;16.30;75.70
24326;DHT22;12448;45.532;5.290;2023-05-10T13:42:11;16.20;73.90
24326;DHT22;12448;45.532;5.290;2023-05-10T13:44:37;16.20;75.50
24326;DHT22;12448;45.532;5.290;2023-05-10T13:47:04;16.10;74.00
24326;DHT22;12448;45.532;5.290;2023-05-10T13:49:29;16.10;73.50
24326;DHT22;12448;45.532;5.290;2023-05-10T13:51:55;16.00;74.20
24326;DHT22;12448;45.532;5.290;2023-05-10T13:54:21;16.00;74.80
24326;DHT22;12448;45.532;5.290;2023-05-10T13:56:47;16.00;74.60
24326;DHT22;12448;45.532;5.290;2023-05-10T13:59:14;16.00;74.50
24326;DHT22;12448;45.532;5.290;2023-05-10T14:01:43;15.90;74.90
24326;DHT22;12448;45.532;5.290;2023-05-10T14:04:09;15.80;73.40
24326;DHT22;12448;45.532;5.290;2023-05-10T14:06:38;15.80;73.20
24326;DHT22;12448;45.532;5.290;2023-05-10T14:09:04;15.70;73.50
24326;DHT22;12448;45.532;5.290;2023-05-10T14:11:29;15.80;74.30
24326;DHT22;12448;45.532;5.290;2023-05-10T14:13:55;15.90;73.90
24326;DHT22;12448;45.532;5.290;2023-05-10T14:16:21;16.00;74.00
24326;DHT22;12448;45.532;5.290;2023-05-10T14:18:46;16.00;73.90
24326;DHT22;12448;45.532;5.290;2023-05-10T14:21:12;16.10;74.40
24326;DHT22;12448;45.532;5.290;2023-05-10T14:23:38;16.10;72.80
24326;DHT22;12448;45.532;5.290;2023-05-10T14:26:04;16.20;70.70
24326;DHT22;12448;45.532;5.290;2023-05-10T14:28:30;16.10;69.70
24326;DHT22;12448;45.532;5.290;2023-05-10T14:30:55;16.20;70.50
24326;DHT22;12448;45.532;5.290;2023-05-10T14:33:21;16.20;72.10
24326;DHT22;12448;45.532;5.290;2023-05-10T14:35:47;16.20;72.30
24326;DHT22;12448;45.532;5.290;2023-05-10T14:38:14;16.20;71.00
24326;DHT22;12448;45.532;5.290;2023-05-10T14:40:39;16.20;70.70
24326;DHT22;12448;45.532;5.290;2023-05-10T14:43:05;16.10;70.50
24326;DHT22;12448;45.532;5.290;2023-05-10T14:45:31;16.20;71.40
24326;DHT22;12448;45.532;5.290;2023-05-10T14:47:57;16.10;71.10
24326;DHT22;12448;45.532;5.290;2023-05-10T14:50:23;16.10;72.20
24326;DHT22;12448;45.532;5.290;2023-05-10T14:52:48;16.20;72.50
24326;DHT22;12448;45.532;5.290;2023-05-10T14:55:15;16.30;73.40
24326;DHT22;12448;45.532;5.290;2023-05-10T14:57:40;16.40;73.80
24326;DHT22;12448;45.532;5.290;2023-05-10T15:00:07;16.40;73.50
24326;DHT22;12448;45.532;5.290;2023-05-10T15:02:33;16.50;73.70
24326;DHT22;12448;45.532;5.290;2023-05-10T15:04:59;16.60;73.90
24326;DHT22;12448;45.532;5.290;2023-05-10T15:07:24;16.60;73.30
24326;DHT22;12448;45.532;5.290;2023-05-10T15:09:51;16.50;73.00
24326;DHT22;12448;45.532;5.290;2023-05-10T15:12:19;16.50;74.00
24326;DHT22;12448;45.532;5.290;2023-05-10T15:14:45;16.50;74.00
24326;DHT22;12448;45.532;5.290;2023-05-10T15:17:11;16.50;74.20
24326;DHT22;12448;45.532;5.290;2023-05-10T15:19:37;16.50;74.10
24326;DHT22;12448;45.532;5.290;2023-05-10T15:22:04;16.40;73.50
24326;DHT22;12448;45.532;5.290;2023-05-10T15:24:30;16.30;73.20
24326;DHT22;12448;45.532;5.290;2023-05-10T15:26:56;16.00;72.50
24326;DHT22;12448;45.532;5.290;2023-05-10T15:29:21;15.90;72.50
24326;DHT22;12448;45.532;5.290;2023-05-10T15:31:47;16.00;72.30
24326;DHT22;12448;45.532;5.290;2023-05-10T15:34:14;16.20;72.90
24326;DHT22;12448;45.532;5.290;2023-05-10T15:36:39;16.50;73.30
24326;DHT22;12448;45.532;5.290;2023-05-10T15:39:05;16.80;73.80
24326;DHT22;12448;45.532;5.290;2023-05-10T15:41:31;17.10;73.80
24326;DHT22;12448;45.532;5.290;2023-05-10T15:44:04;17.40;73.60
24326;DHT22;12448;45.532;5.290;2023-05-10T15:46:39;17.60;72.50
24326;DHT22;12448;45.532;5.290;2023-05-10T15:49:21;17.80;72.50
24326;DHT22;12448;45.532;5.290;2023-05-10T15:51:52;17.90;71.50
24326;DHT22;12448;45.532;5.290;2023-05-10T15:54:21;17.80;68.80
24326;DHT22;12448;45.532;5.290;2023-05-10T15:57:30;17.80;70.00
24326;DHT22;12448;45.532;5.290;2023-05-10T15:59:56;17.80;67.20
24326;DHT22;12448;45.532;5.290;2023-05-10T16:02:27;17.80;68.90
24326;DHT22;12448;45.532;5.290;2023-05-10T16:05:19;17.80;70.40
24326;DHT22;12448;45.532;5.290;2023-05-10T16:07:48;17.90;70.60
24326;DHT22;12448;45.532;5.290;2023-05-10T16:10:14;17.90;70.50
24326;DHT22;12448;45.532;5.290;2023-05-10T16:12:40;18.00;71.10
24326;DHT22;12448;45.532;5.290;2023-05-10T16:15:09;18.00;71.10